Time;durP1;ratioP1;P1;durP2;ratioP2;P2;SDS_P1;SDS_P2;PMS_P1;PMS_P2;Temp;Humidity;BMP_temperature;BMP_pressure;BME280_temperature;BME280_humidity;BME280_pressure;Samples;Min_cycle;Max_cycle;Signal;HPM_P1;HPM_P2
2021/04/13 00:01:10;;;;;;;4.90;3.45;;;;;;;1.02;78.23;96713.91;5056619;28;20053;-49
2021/04/13 00:03:51;;;;;;;5.53;3.92;;;;;;;0.97;78.59;96711.19;5051740;28;20231;-51
2021/04/13 00:06:42;;;;;;;5.57;3.75;;;;;;;1.03;78.90;96723.50;5071047;28;20052;-55
2021/04/13 00:09:31;;;;;;;7.10;4.13;;;;;;;1.08;78.75;96718.25;5058924;28;20055;-55
2021/04/13 00:12:21;;;;;;;4.82;3.47;;;;;;;1.11;78.42;96726.53;5069393;28;20036;-50
2021/04/13 00:15:03;;;;;;;5.40;3.63;;;;;;;1.01;78.95;96712.28;5057763;28;20053;-50
2021/04/13 00:17:31;;;;;;;4.25;3.13;;;;;;;1.05;78.89;96716.09;5070309;28;20592;-48
2021/04/13 00:20:14;;;;;;;5.38;3.50;;;;;;;1.12;78.07;96717.47;5066995;28;20512;-51
2021/04/13 00:22:41;;;;;;;4.72;3.40;;;;;;;1.10;78.65;96719.56;5042311;28;20307;-49
2021/04/13 00:25:10;;;;;;;5.30;3.30;;;;;;;1.15;77.88;96722.31;5069097;28;20079;-50
2021/04/13 00:27:36;;;;;;;6.32;3.40;;;;;;;1.09;77.99;96723.31;5067776;28;20044;-50
2021/04/13 00:30:16;;;;;;;5.15;3.35;;;;;;;1.08;78.47;96719.03;5052762;28;20057;-49
2021/04/13 00:32:57;;;;;;;4.53;3.28;;;;;;;1.05;78.55;96719.53;5050032;28;20524;-49
2021/04/13 00:35:35;;;;;;;4.50;2.90;;;;;;;1.08;77.97;96720.91;5053673;28;20060;-52
2021/04/13 00:38:14;;;;;;;4.28;3.10;;;;;;;1.02;78.97;96716.59;5059070;28;20079;-51
2021/04/13 00:40:42;;;;;;;8.15;3.50;;;;;;;1.03;79.28;96718.19;5033824;28;20088;-50
2021/04/13 00:43:12;;;;;;;4.82;3.38;;;;;;;0.99;79.33;96723.22;5032520;28;20391;-50
2021/04/13 00:45:44;;;;;;;5.53;3.45;;;;;;;0.99;79.84;96719.75;5033603;28;20046;-54
2021/04/13 00:48:17;;;;;;;7.88;3.35;;;;;;;0.99;80.53;96720.56;5037173;28;20049;-50
2021/04/13 00:50:47;;;;;;;5.50;3.80;;;;;;;1.05;80.96;96711.56;5065022;28;20120;-51
2021/04/13 00:53:22;;;;;;;6.25;3.92;;;;;;;1.03;81.03;96729.63;5033253;28;20127;-50
2021/04/13 00:55:56;;;;;;;5.97;3.58;;;;;;;1.11;80.92;96729.19;5033466;28;20068;-49
2021/04/13 00:58:30;;;;;;;7.05;4.68;;;;;;;1.12;81.50;96722.81;5039727;28;20094;-46
2021/04/13 01:01:01;;;;;;;5.35;4.32;;;;;;;1.02;82.22;96733.38;5061902;28;20130;-46
2021/04/13 01:03:31;;;;;;;8.63;4.30;;;;;;;1.05;81.70;96724.06;5054870;28;20106;-48
2021/04/13 01:06:00;;;;;;;6.85;4.30;;;;;;;0.82;82.33;96722.50;5071042;28;20063;-49
2021/04/13 01:08:34;;;;;;;5.60;4.38;;;;;;;0.76;83.81;96731.50;5069092;28;20049;-50
2021/04/13 01:11:13;;;;;;;7.07;4.95;;;;;;;0.85;83.67;96730.81;5048832;28;20075;-52
2021/04/13 01:13:46;;;;;;;5.95;4.72;;;;;;;0.89;83.82;96731.09;5052350;28;20534;-50
2021/04/13 01:16:13;;;;;;;6.82;4.90;;;;;;;0.83;83.47;96730.25;5058842;28;20087;-50
2021/04/13 01:18:42;;;;;;;7.65;4.80;;;;;;;0.79;84.24;96731.81;5054058;28;20052;-49
2021/04/13 01:21:24;;;;;;;8.10;5.10;;;;;;;0.79;83.95;96726.47;5053046;28;20136;-50
2021/04/13 01:26:19;;;;;;;7.10;5.38;;;;;;;0.77;84.75;96722.44;5063290;28;20057;-49
2021/04/13 01:28:50;;;;;;;7.85;5.07;;;;;;;0.71;85.07;96726.91;5072629;28;20467;-52
2021/04/13 01:31:42;;;;;;;8.55;4.93;;;;;;;0.85;84.57;96724.69;5041436;28;20107;-49
2021/04/13 01:34:36;;;;;;;8.18;5.38;;;;;;;0.81;84.07;96726.22;5032564;28;20060;-51
2021/04/13 01:37:17;;;;;;;8.05;5.75;;;;;;;0.80;84.42;96724.63;5046525;28;20056;-49
2021/04/13 01:42:22;;;;;;;7.07;5.47;;;;;;;0.67;84.86;96726.59;5065353;28;20171;-50
2021/04/13 01:44:53;;;;;;;7.65;5.78;;;;;;;0.58;86.21;96719.31;5032875;28;20057;-51
2021/04/13 01:47:23;;;;;;;8.18;6.35;;;;;;;0.61;85.35;96721.47;5072311;28;20056;-50
2021/04/13 01:49:54;;;;;;;8.90;6.32;;;;;;;0.64;86.17;96719.09;5067740;28;20061;-51
2021/04/13 01:52:52;;;;;;;9.55;6.72;;;;;;;0.76;85.31;96723.50;5035205;28;20471;-50
2021/04/13 01:55:22;;;;;;;9.15;6.80;;;;;;;0.68;86.29;96720.25;5031844;28;20573;-48
2021/04/13 01:58:08;;;;;;;11.13;7.15;;;;;;;0.77;85.70;96719.78;5045591;28;20106;-47
2021/04/13 02:00:51;;;;;;;9.13;7.38;;;;;;;0.67;86.11;96721.28;5048530;28;20078;-50
2021/04/13 02:03:27;;;;;;;;;;;;;;;0.65;86.73;96720.75;5067582;28;20048;-48
2021/04/13 02:06:00;;;;;;;10.55;7.00;;;;;;;0.62;87.15;96723.91;5072056;28;19924;-49
2021/04/13 02:08:37;;;;;;;10.70;7.43;;;;;;;0.55;87.58;96715.28;5048411;28;20060;-49
2021/04/13 02:11:08;;;;;;;10.82;8.27;;;;;;;0.52;88.03;96717.63;5071992;28;20052;-48
2021/04/13 02:14:01;;;;;;;12.88;8.88;;;;;;;0.37;88.87;96713.75;5052922;28;20045;-49
2021/04/13 02:16:33;;;;;;;11.23;8.13;;;;;;;0.39;89.44;96718.81;5053355;28;20092;-50
2021/04/13 02:19:02;;;;;;;10.18;7.65;;;;;;;0.44;88.60;96710.91;5070432;28;20363;-50
2021/04/13 02:21:33;;;;;;;9.90;7.88;;;;;;;0.37;89.51;96724.41;5056338;28;20055;-49
2021/04/13 02:24:23;;;;;;;10.88;8.02;;;;;;;0.51;89.15;96711.50;5063459;28;20052;-49
2021/04/13 02:26:53;;;;;;;11.55;8.27;;;;;;;0.51;88.98;96710.72;5071658;28;20402;-47
2021/04/13 02:29:37;;;;;;;13.35;8.35;;;;;;;0.54;88.99;96712.88;5064515;28;20132;-49
2021/04/13 02:32:16;;;;;;;;;;;;;;;0.57;88.92;96718.50;5068617;28;20064;-49
2021/04/13 02:34:47;;;;;;;10.85;8.85;;;;;;;0.66;88.25;96719.69;5069952;28;20334;-48
2021/04/13 02:37:33;;;;;;;9.60;7.30;;;;;;;0.65;87.17;96717.25;5071663;28;20057;-50
2021/04/13 02:40:27;;;;;;;12.35;7.43;;;;;;;0.57;86.38;96715.84;5031588;28;20046;-49
2021/04/13 02:42:57;;;;;;;12.32;7.75;;;;;;;0.58;86.95;96704.13;5040049;28;20064;-48
2021/04/13 02:45:42;;;;;;;11.15;8.00;;;;;;;0.57;87.57;96699.88;5071569;28;20052;-47
2021/04/13 02:48:14;;;;;;;10.32;7.75;;;;;;;0.50;87.83;96704.59;5069918;28;20049;-48
2021/04/13 02:50:46;;;;;;;13.77;7.93;;;;;;;0.47;88.30;96710.41;5059853;28;20506;-50
2021/04/13 02:53:22;;;;;;;10.98;7.95;;;;;;;0.54;87.67;96705.69;5063445;28;20074;-52
2021/04/13 02:55:53;;;;;;;10.00;7.53;;;;;;;0.56;87.36;96708.91;5070819;28;20131;-51
2021/04/13 02:58:28;;;;;;;11.60;8.38;;;;;;;0.53;88.19;96698.75;5057306;28;20503;-50
2021/04/13 03:00:59;;;;;;;11.93;8.10;;;;;;;0.51;88.40;96700.84;5067277;28;20076;-50
2021/04/13 03:03:38;;;;;;;10.73;8.02;;;;;;;0.60;87.77;96704.69;5070779;28;20506;-46
2021/04/13 03:06:05;;;;;;;12.15;8.25;;;;;;;0.55;87.25;96699.28;5054893;28;20057;-46
2021/04/13 03:08:39;;;;;;;10.07;6.90;;;;;;;0.61;86.45;96700.16;5031430;28;20057;-47
2021/04/13 03:11:11;;;;;;;11.65;7.57;;;;;;;0.54;87.32;96697.69;5043008;28;20115;-49
2021/04/13 03:13:40;;;;;;;9.90;7.32;;;;;;;0.60;86.92;96703.88;5055996;28;20044;-49
2021/04/13 03:16:07;;;;;;;11.57;7.72;;;;;;;0.66;86.61;96701.03;5050284;28;20064;-54
2021/04/13 03:18:40;;;;;;;11.80;8.15;;;;;;;0.56;87.23;96705.44;5063892;28;20048;-54
2021/04/13 03:21:32;;;;;;;9.95;7.53;;;;;;;0.46;88.13;96698.94;5062059;28;20087;-50
2021/04/13 03:24:03;;;;;;;13.20;7.70;;;;;;;0.55;87.70;96706.47;5067770;28;20049;-51
2021/04/13 03:26:54;;;;;;;9.90;7.22;;;;;;;0.59;86.02;96703.09;5070221;28;20121;-53
2021/04/13 03:29:23;;;;;;;12.02;8.80;;;;;;;0.47;87.67;96699.75;5065033;28;20052;-51
2021/04/13 03:31:51;;;;;;;12.60;8.13;;;;;;;0.55;86.57;96696.63;5054624;28;20186;-49
2021/04/13 03:34:18;;;;;;;12.88;8.10;;;;;;;0.50;86.88;96693.94;5062869;28;20170;-50
2021/04/13 03:36:46;;;;;;;11.73;8.05;;;;;;;0.55;86.72;96688.66;5070885;28;20492;-49
2021/04/13 03:39:32;;;;;;;12.05;9.18;;;;;;;0.50;87.91;96693.13;5033101;28;20059;-49
2021/04/13 03:42:00;;;;;;;17.98;10.35;;;;;;;0.49;87.85;96692.34;5067313;28;20056;-47
2021/04/13 03:44:28;;;;;;;14.20;9.57;;;;;;;0.48;88.76;96688.03;5074396;22;20397;-46
2021/04/13 03:46:55;;;;;;;11.82;9.43;;;;;;;0.53;88.39;96692.63;5070138;28;20079;-47
2021/04/13 03:49:35;;;;;;;13.55;9.35;;;;;;;0.54;88.54;96689.72;5069742;28;20052;-49
2021/04/13 03:52:07;;;;;;;12.07;9.13;;;;;;;0.58;88.25;96690.81;5057945;28;20041;-47
2021/04/13 03:54:37;;;;;;;10.95;8.50;;;;;;;0.64;87.25;96689.81;5029743;28;20115;-46
2021/04/13 03:57:05;;;;;;;13.13;9.38;;;;;;;0.59;87.14;96692.44;5061264;28;20052;-46
2021/04/13 03:59:35;;;;;;;14.50;10.95;;;;;;;0.58;87.22;96690.81;5068446;28;20060;-46
2021/04/13 04:02:05;;;;;;;15.32;10.00;;;;;;;0.58;87.44;96690.00;5052549;28;20052;-45
2021/04/13 04:04:38;;;;;;;12.73;9.18;;;;;;;0.51;87.26;96690.19;5051206;28;20045;-48
2021/04/13 04:07:32;;;;;;;14.70;9.75;;;;;;;0.57;88.17;96699.06;5064751;28;20060;-46
2021/04/13 04:09:58;;;;;;;13.93;10.02;;;;;;;0.59;87.65;96695.09;5069259;28;20128;-48
2021/04/13 04:12:33;;;;;;;14.20;9.23;;;;;;;0.52;87.89;96699.81;5063299;28;20529;-47
2021/04/13 04:15:10;;;;;;;13.65;9.80;;;;;;;0.56;87.04;96700.94;5034780;28;20132;-46
2021/04/13 04:17:46;;;;;;;14.30;9.88;;;;;;;0.61;86.38;96695.63;5067244;28;20061;-45
2021/04/13 04:20:14;;;;;;;12.13;8.90;;;;;;;0.64;86.03;96697.00;5043113;28;20064;-44
2021/04/13 04:22:53;;;;;;;13.82;9.68;;;;;;;0.54;86.43;96696.91;5051730;28;20060;-46
2021/04/13 04:25:22;;;;;;;12.68;9.88;;;;;;;0.53;87.02;96696.09;5052950;28;20077;-45
2021/04/13 04:27:53;;;;;;;13.45;10.60;;;;;;;0.61;86.50;96694.84;5072867;28;20058;-42
2021/04/13 04:30:25;;;;;;;15.27;10.65;;;;;;;0.52;87.17;96697.16;5058945;28;20087;-44
2021/04/13 04:32:53;;;;;;;15.13;10.65;;;;;;;0.59;86.98;96704.97;5053097;28;20417;-43
2021/04/13 04:35:40;;;;;;;16.02;10.95;;;;;;;0.67;86.97;96710.63;5051545;28;20053;-43
2021/04/13 04:38:24;;;;;;;15.00;10.80;;;;;;;0.63;86.33;96703.41;5033475;28;20465;-42
2021/04/13 04:40:53;;;;;;;15.82;10.63;;;;;;;0.62;86.89;96713.25;5040209;28;20049;-43
2021/04/13 04:43:47;;;;;;;16.05;11.60;;;;;;;0.61;87.61;96716.16;5051352;28;20069;-44
2021/04/13 04:46:39;;;;;;;16.58;11.55;;;;;;;0.72;87.18;96709.09;5063683;28;20464;-43
2021/04/13 04:49:11;;;;;;;16.50;11.27;;;;;;;0.77;86.75;96717.13;5073941;28;20055;-44
2021/04/13 04:51:39;;;;;;;16.27;11.50;;;;;;;0.81;86.30;96721.69;5056470;28;20061;-45
2021/04/13 04:54:07;;;;;;;16.73;12.18;;;;;;;0.72;86.06;96717.09;5035638;28;20053;-41
2021/04/13 04:56:34;;;;;;;17.15;11.90;;;;;;;0.77;86.75;96725.09;5068705;28;20522;-45
2021/04/13 04:59:00;;;;;;;16.00;11.60;;;;;;;0.77;86.50;96730.44;5067131;28;20051;-42
2021/04/13 05:01:27;;;;;;;15.65;11.68;;;;;;;0.77;86.06;96725.91;5051896;28;20041;-44
2021/04/13 05:03:54;;;;;;;15.63;11.38;;;;;;;0.85;86.43;96724.69;5055091;28;20049;-45
2021/04/13 05:06:21;;;;;;;17.58;11.95;;;;;;;0.80;86.38;96728.06;5051643;28;20124;-45
2021/04/13 05:08:48;;;;;;;16.40;12.35;;;;;;;0.88;86.75;96729.50;5056010;28;20083;-48
2021/04/13 05:11:15;;;;;;;17.15;11.82;;;;;;;0.86;87.13;96729.75;5044184;28;20455;-48
2021/04/13 05:13:41;;;;;;;16.35;11.90;;;;;;;0.79;86.14;96739.78;5034505;28;20055;-46
2021/04/13 05:16:08;;;;;;;16.67;12.18;;;;;;;0.88;84.92;96738.31;5053134;28;20083;-47
2021/04/13 05:18:35;;;;;;;18.00;12.88;;;;;;;0.85;85.82;96733.47;5039014;28;20094;-44
2021/04/13 05:21:02;;;;;;;17.38;12.70;;;;;;;0.87;85.65;96743.88;5066765;28;20072;-48
2021/04/13 05:23:29;;;;;;;18.90;13.60;;;;;;;0.92;85.64;96739.41;5051304;28;20111;-45
2021/04/13 05:25:55;;;;;;;19.60;13.45;;;;;;;0.90;86.00;96735.38;5060256;28;20397;-45
2021/04/13 05:28:22;;;;;;;18.08;12.25;;;;;;;0.71;85.13;96737.56;5057427;28;20118;-46
2021/04/13 05:30:50;;;;;;;18.02;12.90;;;;;;;0.85;85.21;96746.78;5065129;28;20133;-45
2021/04/13 05:33:20;;;;;;;18.52;13.13;;;;;;;0.74;85.72;96736.25;5037607;28;20037;-44
2021/04/13 05:35:48;;;;;;;20.65;13.85;;;;;;;0.92;85.88;96738.59;5052401;28;20099;-48
2021/04/13 05:38:18;;;;;;;19.75;14.25;;;;;;;0.99;86.63;96749.06;5055350;28;20127;-47
2021/04/13 05:40:44;;;;;;;20.75;14.52;;;;;;;1.03;86.62;96742.16;5060887;28;20576;-46
2021/04/13 05:43:13;;;;;;;21.02;14.82;;;;;;;1.14;86.39;96744.69;5051536;28;20041;-46
2021/04/13 05:45:47;;;;;;;20.17;15.05;;;;;;;1.15;85.66;96751.63;5052088;28;20049;-44
2021/04/13 05:48:14;;;;;;;19.30;13.20;;;;;;;1.22;85.42;96742.63;5065319;28;20665;-42
2021/04/13 05:50:43;;;;;;;20.50;15.00;;;;;;;1.16;85.96;96747.91;5054065;28;20055;-46
2021/04/13 05:53:12;;;;;;;20.13;14.15;;;;;;;1.16;84.88;96749.75;5043914;28;20419;-50
2021/04/13 05:55:41;;;;;;;26.58;15.00;;;;;;;1.09;85.99;96751.81;5059848;28;20488;-50
2021/04/13 05:58:14;;;;;;;22.42;15.25;;;;;;;1.14;86.89;96758.03;5057146;28;20092;-45
2021/04/13 06:00:41;;;;;;;20.25;15.48;;;;;;;1.20;87.34;96755.38;5052879;28;20127;-44
2021/04/13 06:03:13;;;;;;;20.38;14.68;;;;;;;1.33;86.48;96763.81;5061971;28;20052;-47
2021/04/13 06:05:40;;;;;;;19.88;14.68;;;;;;;1.12;86.34;96765.44;5055008;28;20059;-44
2021/04/13 06:08:11;;;;;;;20.60;14.10;;;;;;;1.28;85.21;96760.28;5048218;28;20041;-49
2021/04/13 06:10:38;;;;;;;23.00;14.75;;;;;;;1.35;84.68;96764.34;5056937;28;20395;-43
2021/04/13 06:13:06;;;;;;;23.35;15.57;;;;;;;1.29;84.80;96764.53;5038932;28;20498;-46
2021/04/13 06:15:33;;;;;;;22.27;15.65;;;;;;;1.25;85.79;96758.91;5053160;28;20057;-50
2021/04/13 06:18:00;;;;;;;23.65;16.55;;;;;;;1.16;86.98;96761.22;5052130;28;20053;-44
2021/04/13 06:20:28;;;;;;;24.33;15.77;;;;;;;1.04;87.38;96762.41;5049452;28;20054;-43
2021/04/13 06:22:58;;;;;;;22.95;16.02;;;;;;;1.02;87.64;96759.22;5046386;28;20057;-47
2021/04/13 06:25:28;;;;;;;22.70;16.40;;;;;;;1.14;86.87;96760.69;5032607;28;20136;-45
2021/04/13 06:27:56;;;;;;;22.92;16.48;;;;;;;1.43;85.70;96763.09;5032606;28;20084;-49
2021/04/13 06:30:24;;;;;;;25.77;18.80;;;;;;;1.42;85.98;96763.34;5031500;28;20111;-48
2021/04/13 06:32:53;;;;;;;23.48;16.20;;;;;;;1.13;87.82;96764.38;5030779;28;20045;-43
2021/04/13 06:35:21;;;;;;;22.55;16.00;;;;;;;1.13;87.55;96772.38;5032171;28;20419;-46
2021/04/13 06:37:50;;;;;;;23.17;16.30;;;;;;;0.96;85.84;96766.34;5032222;28;20123;-47
2021/04/13 06:40:49;;;;;;;24.15;17.13;;;;;;;1.42;85.12;96764.13;5047709;28;20053;-46
2021/04/13 06:43:16;;;;;;;26.52;17.42;;;;;;;1.48;84.65;96765.00;5022336;28;20049;-48
2021/04/13 06:45:57;;;;;;;30.20;20.02;;;;;;;1.35;87.14;96761.66;5032599;28;20080;-44
2021/04/13 06:49:03;;;;;;;27.55;17.35;;;;;;;1.23;86.15;96762.88;5031289;28;20072;-51
2021/04/13 06:51:45;;;;;;;27.38;19.00;;;;;;;1.56;86.23;96767.19;5022068;28;20072;-48
2021/04/13 06:54:31;;;;;;;27.27;17.52;;;;;;;1.23;85.30;96766.34;5031853;28;20053;-43
2021/04/13 06:57:12;;;;;;;25.67;17.30;;;;;;;1.59;83.49;96769.34;5031289;28;20057;-48
2021/04/13 07:00:17;;;;;;;26.30;16.98;;;;;;;1.20;84.50;96758.84;5030786;28;20052;-47
2021/04/13 07:03:06;;;;;;;26.27;17.80;;;;;;;0.86;84.95;96758.25;5031431;28;20056;-44
2021/04/13 07:05:42;;;;;;;28.30;19.25;;;;;;;0.95;85.41;96753.28;5031959;28;20111;-48
2021/04/13 07:08:29;;;;;;;29.00;18.73;;;;;;;1.28;84.80;96761.06;5030844;28;20896;-45
2021/04/13 07:11:04;;;;;;;27.92;18.23;;;;;;;1.15;84.56;96767.63;5031736;28;20491;-44
2021/04/13 07:13:54;;;;;;;28.23;18.52;;;;;;;1.07;86.41;96767.25;5042677;28;20529;-46
2021/04/13 07:16:25;;;;;;;28.63;19.55;;;;;;;1.14;87.32;96765.22;5051504;28;20045;-46
2021/04/13 07:19:07;;;;;;;34.08;19.13;;;;;;;1.15;85.78;96774.81;5051512;28;20126;-42
2021/04/13 07:22:05;;;;;;;30.58;19.63;;;;;;;1.43;84.83;96765.75;5048621;28;20061;-46
2021/04/13 07:24:54;;;;;;;29.60;20.13;;;;;;;1.36;83.56;96765.13;5031330;28;20410;-47
2021/04/13 07:27:47;;;;;;;34.40;21.98;;;;;;;1.51;85.80;96764.47;5031670;28;20100;-46
2021/04/13 07:30:34;;;;;;;28.70;19.45;;;;;;;1.45;83.42;96768.97;5026001;28;20103;-44
2021/04/13 07:33:04;;;;;;;32.35;21.88;;;;;;;1.44;84.55;96766.56;5030187;28;20140;-48
2021/04/13 07:35:33;;;;;;;33.25;22.90;;;;;;;1.67;84.81;96770.75;5031160;28;20116;-49
2021/04/13 07:38:07;;;;;;;32.65;21.42;;;;;;;1.62;84.23;96768.81;5031049;28;20400;-47
2021/04/13 07:40:34;;;;;;;;;;;;;;;1.58;82.20;96763.19;5032123;28;20107;-49
2021/04/13 07:43:12;;;;;;;31.35;20.25;;;;;;;1.43;82.26;96772.94;5033624;28;19921;-45
2021/04/13 07:45:53;;;;;;;29.85;21.10;;;;;;;1.43;81.70;96772.94;5035227;28;20137;-44
2021/04/13 07:48:19;;;;;;;32.10;22.25;;;;;;;1.72;81.64;96771.56;5035365;28;20132;-47
2021/04/13 07:51:04;;;;;;;30.98;21.55;;;;;;;2.08;81.73;96777.16;5035043;28;20410;-43
2021/04/13 07:53:49;;;;;;;31.13;20.67;;;;;;;1.73;80.73;96778.53;5035077;28;20083;-47
2021/04/13 07:56:27;;;;;;;27.25;19.77;;;;;;;1.60;79.47;96781.63;5035312;28;20057;-43
2021/04/13 07:59:22;;;;;;;26.88;20.20;;;;;;;1.91;80.34;96787.19;5035359;28;20053;-44
2021/04/13 08:01:49;;;;;;;29.30;19.63;;;;;;;1.87;81.14;96781.56;5024172;28;20123;-45
2021/04/13 08:04:21;;;;;;;25.23;17.92;;;;;;;1.56;79.81;96784.00;5034833;28;20482;-45
2021/04/13 08:07:14;;;;;;;25.35;17.83;;;;;;;1.43;80.19;96780.94;5034571;28;20430;-46
2021/04/13 08:10:00;;;;;;;28.08;18.67;;;;;;;1.76;81.76;96778.03;5032084;28;20061;-43
2021/04/13 08:12:28;;;;;;;25.70;18.00;;;;;;;1.87;79.56;96786.91;5034145;28;20487;-45
2021/04/13 08:14:55;;;;;;;21.42;14.40;;;;;;;1.42;78.22;96788.13;5034802;28;20053;-45
2021/04/13 08:17:32;;;;;;;23.02;16.38;;;;;;;2.02;79.72;96784.38;5034729;28;20080;-45
2021/04/13 08:20:02;;;;;;;21.95;15.60;;;;;;;1.95;77.59;96778.44;5035077;28;20060;-46
2021/04/13 08:22:50;;;;;;;20.85;15.63;;;;;;;2.13;77.76;96782.56;5034879;28;20498;-45
2021/04/13 08:25:37;;;;;;;20.33;15.60;;;;;;;2.28;78.57;96788.00;5034529;28;20115;-48
2021/04/13 08:28:25;;;;;;;21.67;15.90;;;;;;;2.32;77.46;96788.28;5034666;28;20076;-47
2021/04/13 08:34:52;;;;;;;21.10;15.30;;;;;;;2.46;74.13;96792.09;5054178;28;20052;-44
2021/04/13 08:37:50;;;;;;;21.77;16.17;;;;;;;2.96;75.67;96788.06;5054435;28;20057;-45
2021/04/13 08:40:35;;;;;;;22.80;16.88;;;;;;;3.34;75.84;96794.03;5034092;28;20053;-47
2021/04/13 08:43:16;;;;;;;21.77;15.27;;;;;;;2.74;72.44;96795.44;5034247;28;20056;-47
2021/04/13 08:45:49;;;;;;;18.98;14.32;;;;;;;2.92;71.24;96792.28;5034468;28;20057;-47
2021/04/13 08:48:27;;;;;;;20.65;15.10;;;;;;;2.69;72.53;96795.41;5033968;28;20053;-46
2021/04/13 08:51:12;;;;;;;18.50;14.13;;;;;;;2.13;73.41;96789.78;5033858;28;20119;-48
2021/04/13 08:53:51;;;;;;;21.02;14.45;;;;;;;2.55;73.93;96792.41;5033186;28;20104;-45
2021/04/13 08:56:28;;;;;;;19.17;15.05;;;;;;;2.90;71.98;96799.78;5033984;28;20407;-48
2021/04/13 08:59:04;;;;;;;23.60;17.08;;;;;;;2.91;74.34;96795.25;5033533;28;20099;-48
2021/04/13 09:01:38;;;;;;;20.15;15.63;;;;;;;2.95;71.63;96799.78;5046723;28;20120;-46
2021/04/13 09:04:09;;;;;;;18.55;14.45;;;;;;;2.49;73.32;96804.13;5053206;28;20208;-48
2021/04/13 09:06:56;;;;;;;20.38;14.68;;;;;;;2.85;71.96;96802.44;5044451;28;20068;-48
2021/04/13 09:09:32;;;;;;;17.27;13.98;;;;;;;2.55;72.17;96801.22;5049964;28;20048;-48
2021/04/13 09:12:17;;;;;;;16.67;13.05;;;;;;;2.91;69.69;96806.75;5053957;28;20097;-48
2021/04/13 09:15:20;;;;;;;19.27;14.68;;;;;;;3.63;72.49;96805.03;5056098;28;20053;-47
2021/04/13 09:17:59;;;;;;;18.77;13.13;;;;;;;3.57;68.55;96810.66;5058119;28;20095;-47
2021/04/13 09:20:40;;;;;;;18.85;14.70;;;;;;;3.63;66.94;96802.38;5050849;28;20457;-48
2021/04/13 09:23:28;;;;;;;19.08;14.88;;;;;;;4.03;67.79;96808.81;5051663;28;20068;-47
2021/04/13 09:26:04;;;;;;;16.80;13.30;;;;;;;3.34;66.13;96803.94;5065903;28;20096;-47
2021/04/13 09:28:44;;;;;;;17.95;14.73;;;;;;;3.30;67.44;96803.66;5061021;28;20057;-45
2021/04/13 09:31:11;;;;;;;17.02;14.02;;;;;;;3.83;69.39;96814.97;5054634;28;20056;-45
2021/04/13 09:33:43;;;;;;;16.58;13.82;;;;;;;4.35;66.84;96805.81;5048186;28;20041;-44
2021/04/13 09:36:51;;;;;;;16.15;12.63;;;;;;;3.65;65.71;96812.81;5051512;28;20053;-44
2021/04/13 09:39:24;;;;;;;17.33;12.60;;;;;;;3.47;65.83;96812.25;5050283;28;20417;-41
2021/04/13 09:41:50;;;;;;;15.77;12.30;;;;;;;3.86;65.31;96805.59;5051810;28;20090;-43
2021/04/13 09:44:17;;;;;;;18.20;12.63;;;;;;;3.91;64.45;96798.38;5051177;28;20091;-43
2021/04/13 09:47:06;;;;;;;14.00;11.88;;;;;;;3.64;64.10;96789.78;5052429;28;20082;-45
2021/04/13 09:49:58;;;;;;;13.93;11.52;;;;;;;3.99;63.32;96786.31;5055981;28;20060;-41
2021/04/13 09:52:53;;;;;;;13.02;10.90;;;;;;;3.99;61.98;96784.44;5051582;28;20049;-46
2021/04/13 09:55:49;;;;;;;15.82;11.60;;;;;;;4.17;63.34;96782.28;5051105;28;20106;-44
2021/04/13 09:58:25;;;;;;;15.40;11.35;;;;;;;4.26;63.05;96786.03;5053016;28;20481;-46
2021/04/13 10:01:35;;;;;;;11.63;10.13;;;;;;;4.69;59.95;96787.25;5048039;28;20075;-49
2021/04/13 10:04:33;;;;;;;11.65;9.57;;;;;;;4.34;59.41;96785.47;5052025;28;20110;-47
2021/04/13 10:07:18;;;;;;;14.38;9.00;;;;;;;3.56;61.17;96791.13;5061161;28;20044;-45
2021/04/13 10:09:46;;;;;;;12.73;9.65;;;;;;;3.68;62.00;96783.66;5043091;28;20063;-46
2021/04/13 10:12:15;;;;;;;14.20;10.93;;;;;;;3.67;62.15;96781.22;5046282;28;20061;-47
2021/04/13 10:14:54;;;;;;;15.18;9.98;;;;;;;3.40;63.59;96784.16;5043562;28;20048;-44
2021/04/13 10:17:40;;;;;;;14.02;10.75;;;;;;;3.74;61.07;96781.78;5049924;28;20051;-46
2021/04/13 10:20:35;;;;;;;14.75;11.13;;;;;;;3.99;61.28;96783.63;5042951;28;20099;-46
2021/04/13 10:23:11;;;;;;;12.00;9.43;;;;;;;4.04;59.87;96785.53;5041305;28;20053;-45
2021/04/13 10:26:05;;;;;;;8.73;6.70;;;;;;;3.59;56.42;96781.75;5042025;28;20520;-44
2021/04/13 10:28:51;;;;;;;7.53;5.95;;;;;;;3.57;55.85;96774.00;5051669;28;20045;-47
2021/04/13 10:31:43;;;;;;;11.02;7.85;;;;;;;3.85;55.58;96767.31;5049834;28;20052;-45
2021/04/13 10:34:46;;;;;;;14.90;5.10;;;;;;;3.74;52.21;96763.84;5044754;28;20048;-48
2021/04/13 10:37:34;;;;;;;7.97;5.72;;;;;;;3.77;53.91;96764.38;5037897;28;20059;-43
2021/04/13 10:40:35;;;;;;;7.88;6.82;;;;;;;3.69;56.96;96758.47;5050820;28;20090;-47
2021/04/13 10:43:39;;;;;;;9.43;7.50;;;;;;;3.73;57.75;96762.22;5055188;28;20052;-46
2021/04/13 10:46:44;;;;;;;9.77;7.28;;;;;;;3.94;58.07;96757.69;5034848;28;20467;-45
2021/04/13 10:49:34;;;;;;;9.38;7.57;;;;;;;4.26;59.90;96756.56;5031544;28;20521;-49
2021/04/13 10:52:42;;;;;;;14.80;8.85;;;;;;;4.05;58.94;96754.97;5057807;28;20048;-46
2021/04/13 10:55:17;;;;;;;10.45;7.43;;;;;;;3.86;60.22;96752.84;5045030;28;20398;-46
2021/04/13 10:58:04;;;;;;;9.10;7.00;;;;;;;3.94;58.92;96757.69;5061983;28;20063;-46
2021/04/13 11:00:49;;;;;;;14.18;7.18;;;;;;;3.92;58.83;96750.97;5061124;28;20041;-48
2021/04/13 11:03:34;;;;;;;7.13;6.00;;;;;;;3.87;56.42;96749.13;5053997;28;20045;-44
2021/04/13 11:06:03;;;;;;;11.00;6.43;;;;;;;3.79;57.40;96741.63;5049271;28;20058;-46
2021/04/13 11:08:39;;;;;;;9.00;5.53;;;;;;;3.48;57.88;96740.84;5051765;28;20059;-46
2021/04/13 11:11:17;;;;;;;11.10;5.88;;;;;;;3.66;57.05;96747.50;5047946;28;20125;-45
2021/04/13 11:13:49;;;;;;;10.73;6.53;;;;;;;3.95;57.89;96750.44;5045709;28;20053;-49
2021/04/13 11:16:18;;;;;;;7.70;6.18;;;;;;;4.11;55.40;96744.00;5057850;28;20049;-48
2021/04/13 11:19:07;;;;;;;9.93;6.00;;;;;;;4.08;53.99;96755.25;5047704;28;20099;-46
2021/04/13 11:21:52;;;;;;;8.32;5.25;;;;;;;4.12;54.29;96734.09;5048803;28;20049;-47
2021/04/13 11:24:38;;;;;;;9.80;6.00;;;;;;;4.42;54.27;96739.38;5049834;28;20135;-49
2021/04/13 11:27:09;;;;;;;8.57;5.95;;;;;;;4.61;54.08;96738.75;5050694;28;20053;-46
2021/04/13 11:29:38;;;;;;;23.67;7.20;;;;;;;4.76;53.73;96737.91;5044986;28;20053;-45
2021/04/13 11:32:46;;;;;;;8.45;5.40;;;;;;;4.33;54.31;96730.28;5050202;28;20110;-45
2021/04/13 11:35:34;;;;;;;8.57;5.30;;;;;;;4.11;56.47;96737.84;5037740;28;20593;-47
2021/04/13 11:38:26;;;;;;;8.57;5.82;;;;;;;4.25;56.91;96728.16;5031302;28;20057;-43
2021/04/13 11:41:14;;;;;;;6.50;4.38;;;;;;;4.22;50.83;96742.09;5037513;28;20060;-47
2021/04/13 11:44:14;;;;;;;5.63;4.20;;;;;;;4.36;50.25;96724.38;5044201;28;20387;-43
2021/04/13 11:46:55;;;;;;;7.63;4.88;;;;;;;4.60;49.60;96726.44;5042518;28;20099;-45
2021/04/13 11:49:33;;;;;;;5.85;4.78;;;;;;;4.07;51.11;96718.84;5050473;28;20521;-44
2021/04/13 11:52:28;;;;;;;6.07;4.80;;;;;;;4.68;50.78;96723.22;5047745;28;20452;-48
2021/04/13 11:54:56;;;;;;;6.82;5.25;;;;;;;4.99;50.37;96717.69;5050065;28;20506;-43
2021/04/13 11:57:30;;;;;;;8.82;5.40;;;;;;;5.21;53.06;96712.72;5048861;28;20041;-45
2021/04/13 12:00:21;;;;;;;8.05;5.45;;;;;;;5.29;49.61;96719.38;5050398;28;20052;-46
2021/04/13 12:03:06;;;;;;;9.13;5.20;;;;;;;4.97;51.47;96712.56;5043633;28;20057;-45
2021/04/13 12:05:32;;;;;;;8.57;5.90;;;;;;;4.61;51.19;96715.44;5034395;28;20045;-43
2021/04/13 12:08:01;;;;;;;10.60;5.47;;;;;;;4.21;54.05;96713.72;5049126;28;20099;-44
2021/04/13 12:10:30;;;;;;;10.13;5.57;;;;;;;3.80;56.91;96718.31;5050281;28;20426;-44
2021/04/13 12:13:03;;;;;;;8.73;5.15;;;;;;;3.91;57.25;96712.69;5037539;28;20075;-45
2021/04/13 12:15:30;;;;;;;10.70;5.10;;;;;;;4.34;57.30;96715.00;5043918;28;20490;-45
2021/04/13 12:17:58;;;;;;;9.60;5.40;;;;;;;3.92;55.47;96725.00;5050368;28;20044;-49
2021/04/13 12:20:30;;;;;;;7.60;4.57;;;;;;;3.84;56.29;96727.44;5046301;28;20498;-45
2021/04/13 12:22:59;;;;;;;6.47;5.05;;;;;;;3.56;60.74;96720.75;5042867;28;20041;-45
2021/04/13 12:25:32;;;;;;;8.68;5.57;;;;;;;3.25;63.01;96734.91;5049686;28;20127;-48
2021/04/13 12:28:07;;;;;;;9.03;4.67;;;;;;;2.67;65.87;96731.56;5055256;28;20065;-49